SILO ALERT LOG
| Silo ID | Alert Type | Alert Message | Silo Type | Points | Depth (mm) | Strength | Temperature (°C) | Humidity (%) | Height (mm) | Volume (㎥) | Weight (t) | Flag | Time |
|---|---|---|---|---|---|---|---|---|---|---|---|---|---|
| WJWJR01 | Humidity | 습도센서 측정값이 80% 초과 | 평 | 77 | 7670 | 1088 | 22.8 | 93.7 | -30 | -3.393 | 0 | 0 | 2026-08-23 05:28:20.000 |
| WJWJR05 | Humidity | 습도센서 측정값이 80% 초과 | 평 | 59 | 7730 | 2406 | 23.4 | 90.8 | -10 | -1.131 | 0 | 0 | 2026-08-23 05:27:59.000 |
| WJWJR01 | Humidity | 습도센서 측정값이 80% 초과 | 평 | 77 | 7670 | 1088 | 22.8 | 93.7 | -30 | -3.393 | 0 | 0 | 2026-08-23 05:27:59.000 |
| WJWJR05 | Humidity | 습도센서 측정값이 80% 초과 | 평 | 59 | 7730 | 2406 | 23.4 | 90.8 | -10 | -1.131 | 0 | 0 | 2026-08-23 05:27:59.000 |
| WJWJR05 | Humidity | 습도센서 측정값이 80% 초과 | 평 | 59 | 7730 | 2406 | 23.4 | 90.8 | -10 | -1.131 | 0 | 0 | 2026-08-23 05:27:59.000 |
| WJWJR01 | Humidity | 습도센서 측정값이 80% 초과 | 평 | 76 | 7670 | 1070 | 23.5 | 92.6 | -30 | -3.393 | 0 | 0 | 2026-08-23 01:26:05.000 |
| WJWJR05 | Humidity | 습도센서 측정값이 80% 초과 | 평 | 59 | 8010 | 2449 | 24.1 | 89.8 | -289 | -32.798 | 0 | 0 | 2026-08-23 01:25:46.000 |
| WJWJR01 | Humidity | 습도센서 측정값이 80% 초과 | 평 | 77 | 7690 | 1095 | 24.8 | 90 | -50 | -5.655 | 0 | 0 | 2026-08-22 21:26:03.000 |
| WJWJR05 | Humidity | 습도센서 측정값이 80% 초과 | 평 | 47 | 7950 | 2430 | 25.3 | 87.9 | -230 | -26.012 | 0 | 0 | 2026-08-22 21:25:43.000 |
| WJWJR01 | Humidity | 습도센서 측정값이 80% 초과 | 평 | 76 | 7690 | 1060 | 26.8 | 85.1 | -50 | -5.655 | 0 | 0 | 2026-08-22 17:26:02.000 |
| WJWJR05 | Humidity | 습도센서 측정값이 80% 초과 | 평 | 58 | 7990 | 2498 | 27.2 | 84.9 | -269 | -30.536 | 0 | 0 | 2026-08-22 17:25:49.000 |
| WJWJR01 | Humidity | 습도센서 측정값이 80% 초과 | 평 | 76 | 7670 | 1059 | 28.3 | 91.2 | -30 | -3.393 | 0 | 0 | 2026-08-22 13:26:06.000 |
| WJWJR05 | Humidity | 습도센서 측정값이 80% 초과 | 평 | 56 | 7840 | 2486 | 27.8 | 92 | -120 | -13.572 | 0 | 0 | 2026-08-22 13:25:43.000 |
| WJWJR01 | Humidity | 습도센서 측정값이 80% 초과 | 평 | 78 | 7660 | 1090 | 23.9 | 92.8 | -20 | -2.262 | 0 | 0 | 2026-08-22 09:26:01.000 |
| WJWJR05 | Humidity | 습도센서 측정값이 80% 초과 | 평 | 49 | 7750 | 2479 | 24.2 | 90.8 | -30 | -3.393 | 0 | 0 | 2026-08-22 09:25:48.000 |
| WJWJR01 | Humidity | 습도센서 측정값이 80% 초과 | 평 | 82 | 7710 | 1079 | 24 | 92.7 | -70 | -7.917 | 0 | 0 | 2026-08-22 05:26:02.000 |
| WJWJR05 | Humidity | 습도센서 측정값이 80% 초과 | 평 | 59 | 7980 | 2468 | 24.4 | 90.4 | -260 | -29.405 | 0 | 0 | 2026-08-22 05:25:45.000 |
| WJWJR01 | Humidity | 습도센서 측정값이 80% 초과 | 평 | 78 | 7680 | 1092 | 24.4 | 92.1 | -40 | -4.524 | 0 | 0 | 2026-08-22 01:26:03.000 |
| WJWJR05 | Humidity | 습도센서 측정값이 80% 초과 | 평 | 59 | 7990 | 2433 | 24.8 | 89.6 | -269 | -30.536 | 0 | 0 | 2026-08-22 01:25:46.000 |
| WJWJR01 | Humidity | 습도센서 측정값이 80% 초과 | 평 | 71 | 7700 | 1074 | 25.1 | 90.5 | -60 | -6.786 | 0 | 0 | 2026-08-21 21:26:00.000 |
[첫 페이지] [3] [4] [5] [6] 7 [8] [9] [10] [11] [마지막 페이지]